This is the latest recevied weather packets stored in our database for station/object F6BIJ-13. If no packets are shown the sender has not sent any weather packets the latest 10 day(s).
| Time | Temp. | Humidity | Pressure | Rain* | Wind** | Luminosity | Snow |
|---|---|---|---|---|---|---|---|
| 1788475357 | 18.33° C | 71% | 1023 hPa | 0 mm | - | - | - |
| 1788474636 | 18.33° C | 71% | 1023 hPa | 0 mm | - | - | - |
| 1788474276 | 18.33° C | 71% | 1023 hPa | 0 mm | - | - | - |
| 1788473557 | 18.89° C | 70% | 1023 hPa | 0 mm | - | - | - |
| 1788472476 | 18.89° C | 68% | 1023 hPa | 0 mm | - | - | - |
| 1788470676 | 18.89° C | 70% | 1023 hPa | 0 mm | - | - | - |
| 1788470316 | 19.44° C | 69% | 1023 hPa | 0 mm | - | - | - |
| 1788469957 | 19.44° C | 67% | 1023 hPa | 0 mm | - | - | - |
| 1788469237 | 19.44° C | 67% | 1023 hPa | 0 mm | - | - | - |
| 1788468876 | 19.44° C | 66% | 1023 hPa | 0 mm | - | - | - |
| 1788467797 | 20.56° C | 64% | 1023 hPa | 0 mm | - | - | - |
| 1788467436 | 20.56° C | 63% | 1023 hPa | 0 mm | - | - | - |
| 1788467076 | 20.56° C | 63% | 1023 hPa | 0 mm | - | - | - |
| 1788466716 | 20.56° C | 59% | 1023 hPa | 0 mm | - | - | - |
| 1788466357 | 21.11° C | 58% | 1023 hPa | 0 mm | - | - | - |
| 1788465996 | 21.11° C | 58% | 1023 hPa | 0 mm | - | - | - |
| 1788465637 | 21.67° C | 58% | 1023 hPa | 0 mm | - | - | - |
| 1788465276 | 21.67° C | 57% | 1023 hPa | 0 mm | - | - | - |
| 1788464917 | 21.67° C | 56% | 1023 hPa | 0 mm | - | - | - |
| 1788464197 | 21.67° C | 54% | 1023 hPa | 0 mm | - | - | - |
| 1788463837 | 22.22° C | 54% | 1022 hPa | 0 mm | - | - | - |
| 1788463476 | 22.22° C | 53% | 1022 hPa | 0 mm | - | - | - |
| 1788449437 | 28.33° C | 35% | 1022 hPa | 0 mm | - | - | - |
| 1788449076 | 28.33° C | 34% | 1022 hPa | 0 mm | - | - | - |
| 1788448717 | 27.78° C | 33% | 1022 hPa | 0 mm | - | - | - |
* Rain latest 24 hours (hover to see other rain measurements)
** Current wind speed in m/s (hover to see current wind gust speed)